sensor_id;sensor_type;location;lat;lon;timestamp;P1;durP1;ratioP1;P2;durP2;ratioP2
9823;SDS011;4951;50.778;7.196;2023-12-04T00:01:22;14.10;;;10.50;;
9823;SDS011;4951;50.778;7.196;2023-12-04T00:04:09;11.73;;;9.47;;
9823;SDS011;4951;50.778;7.196;2023-12-04T00:07:56;12.50;;;9.83;;
9823;SDS011;4951;50.778;7.196;2023-12-04T00:14:50;13.73;;;10.27;;
9823;SDS011;4951;50.778;7.196;2023-12-04T00:17:57;13.03;;;10.23;;
9823;SDS011;4951;50.778;7.196;2023-12-04T00:20:34;13.37;;;10.57;;
9823;SDS011;4951;50.778;7.196;2023-12-04T00:23:09;11.93;;;9.83;;
9823;SDS011;4951;50.778;7.196;2023-12-04T00:25:39;12.03;;;9.60;;
9823;SDS011;4951;50.778;7.196;2023-12-04T00:29:24;12.73;;;9.90;;
9823;SDS011;4951;50.778;7.196;2023-12-04T00:33:21;13.67;;;10.27;;
9823;SDS011;4951;50.778;7.196;2023-12-04T00:35:57;12.73;;;10.10;;
9823;SDS011;4951;50.778;7.196;2023-12-04T00:38:44;11.60;;;9.43;;
9823;SDS011;4951;50.778;7.196;2023-12-04T00:42:05;14.80;;;10.53;;
9823;SDS011;4951;50.778;7.196;2023-12-04T00:45:10;11.97;;;9.27;;
9823;SDS011;4951;50.778;7.196;2023-12-04T00:47:56;13.93;;;10.17;;
9823;SDS011;4951;50.778;7.196;2023-12-04T00:53:52;14.47;;;10.73;;
9823;SDS011;4951;50.778;7.196;2023-12-04T00:56:39;12.90;;;10.40;;
9823;SDS011;4951;50.778;7.196;2023-12-04T01:06:28;12.07;;;9.90;;
9823;SDS011;4951;50.778;7.196;2023-12-04T01:26:10;12.30;;;9.17;;
9823;SDS011;4951;50.778;7.196;2023-12-04T01:28:52;12.20;;;9.70;;
9823;SDS011;4951;50.778;7.196;2023-12-04T01:31:22;12.60;;;10.00;;
9823;SDS011;4951;50.778;7.196;2023-12-04T01:34:06;11.40;;;9.67;;
9823;SDS011;4951;50.778;7.196;2023-12-04T01:36:40;12.03;;;9.83;;
9823;SDS011;4951;50.778;7.196;2023-12-04T01:39:20;12.30;;;9.80;;
9823;SDS011;4951;50.778;7.196;2023-12-04T01:41:53;10.97;;;9.57;;
9823;SDS011;4951;50.778;7.196;2023-12-04T01:44:30;13.47;;;10.70;;
9823;SDS011;4951;50.778;7.196;2023-12-04T01:47:01;12.53;;;9.57;;
9823;SDS011;4951;50.778;7.196;2023-12-04T01:49:42;12.63;;;9.80;;
9823;SDS011;4951;50.778;7.196;2023-12-04T01:53:17;12.40;;;9.23;;
9823;SDS011;4951;50.778;7.196;2023-12-04T02:16:19;11.37;;;9.50;;
9823;SDS011;4951;50.778;7.196;2023-12-04T02:20:03;12.33;;;9.57;;
9823;SDS011;4951;50.778;7.196;2023-12-04T02:22:45;11.33;;;9.03;;
9823;SDS011;4951;50.778;7.196;2023-12-04T02:25:30;12.10;;;9.57;;
9823;SDS011;4951;50.778;7.196;2023-12-04T02:28:04;11.83;;;9.50;;
9823;SDS011;4951;50.778;7.196;2023-12-04T02:30:39;10.07;;;8.53;;
9823;SDS011;4951;50.778;7.196;2023-12-04T02:33:37;9.57;;;8.27;;
9823;SDS011;4951;50.778;7.196;2023-12-04T02:46:02;9.97;;;8.10;;
9823;SDS011;4951;50.778;7.196;2023-12-04T02:48:38;12.20;;;8.63;;
9823;SDS011;4951;50.778;7.196;2023-12-04T02:51:30;10.33;;;7.27;;
9823;SDS011;4951;50.778;7.196;2023-12-04T02:54:53;10.13;;;7.90;;
9823;SDS011;4951;50.778;7.196;2023-12-04T02:57:26;10.00;;;7.73;;
9823;SDS011;4951;50.778;7.196;2023-12-04T02:59:55;11.93;;;8.60;;
9823;SDS011;4951;50.778;7.196;2023-12-04T03:02:48;10.87;;;8.63;;
9823;SDS011;4951;50.778;7.196;2023-12-04T03:05:44;10.03;;;7.40;;
9823;SDS011;4951;50.778;7.196;2023-12-04T03:08:37;10.70;;;8.50;;
9823;SDS011;4951;50.778;7.196;2023-12-04T03:15:59;11.83;;;8.43;;
9823;SDS011;4951;50.778;7.196;2023-12-04T03:20:37;9.67;;;8.27;;
9823;SDS011;4951;50.778;7.196;2023-12-04T03:27:53;11.20;;;9.00;;
9823;SDS011;4951;50.778;7.196;2023-12-04T03:31:44;12.10;;;9.20;;
9823;SDS011;4951;50.778;7.196;2023-12-04T03:35:21;10.03;;;7.90;;
9823;SDS011;4951;50.778;7.196;2023-12-04T03:38:04;13.03;;;9.87;;
9823;SDS011;4951;50.778;7.196;2023-12-04T03:40:35;11.57;;;9.33;;
9823;SDS011;4951;50.778;7.196;2023-12-04T03:47:16;11.23;;;8.60;;
9823;SDS011;4951;50.778;7.196;2023-12-04T03:58:00;10.90;;;8.83;;
9823;SDS011;4951;50.778;7.196;2023-12-04T04:02:21;11.50;;;9.27;;
9823;SDS011;4951;50.778;7.196;2023-12-04T04:09:01;13.03;;;9.17;;
9823;SDS011;4951;50.778;7.196;2023-12-04T04:11:37;12.47;;;9.60;;
9823;SDS011;4951;50.778;7.196;2023-12-04T04:14:26;12.73;;;10.13;;
9823;SDS011;4951;50.778;7.196;2023-12-04T04:18:03;11.97;;;9.07;;
9823;SDS011;4951;50.778;7.196;2023-12-04T04:20:39;12.73;;;9.70;;
9823;SDS011;4951;50.778;7.196;2023-12-04T04:23:55;12.57;;;9.77;;
9823;SDS011;4951;50.778;7.196;2023-12-04T04:29:35;12.77;;;9.93;;
9823;SDS011;4951;50.778;7.196;2023-12-04T04:32:36;13.23;;;10.07;;
9823;SDS011;4951;50.778;7.196;2023-12-04T04:35:17;12.77;;;10.27;;
9823;SDS011;4951;50.778;7.196;2023-12-04T04:38:04;13.47;;;10.20;;
9823;SDS011;4951;50.778;7.196;2023-12-04T04:40:33;12.67;;;10.23;;
9823;SDS011;4951;50.778;7.196;2023-12-04T04:43:12;13.50;;;10.20;;
9823;SDS011;4951;50.778;7.196;2023-12-04T04:45:50;12.67;;;10.07;;
9823;SDS011;4951;50.778;7.196;2023-12-04T04:48:31;14.70;;;10.20;;
9823;SDS011;4951;50.778;7.196;2023-12-04T04:51:24;13.13;;;10.17;;
9823;SDS011;4951;50.778;7.196;2023-12-04T04:54:10;15.43;;;10.63;;
9823;SDS011;4951;50.778;7.196;2023-12-04T04:56:48;12.30;;;10.17;;
9823;SDS011;4951;50.778;7.196;2023-12-04T04:59:27;15.13;;;11.13;;
9823;SDS011;4951;50.778;7.196;2023-12-04T05:01:57;13.07;;;10.40;;
9823;SDS011;4951;50.778;7.196;2023-12-04T05:04:36;14.17;;;11.17;;
9823;SDS011;4951;50.778;7.196;2023-12-04T05:07:12;12.50;;;10.47;;
9823;SDS011;4951;50.778;7.196;2023-12-04T05:09:47;13.27;;;10.70;;
9823;SDS011;4951;50.778;7.196;2023-12-04T05:12:24;13.97;;;11.00;;
9823;SDS011;4951;50.778;7.196;2023-12-04T05:15:04;14.47;;;11.57;;
9823;SDS011;4951;50.778;7.196;2023-12-04T05:30:50;15.37;;;11.77;;
9823;SDS011;4951;50.778;7.196;2023-12-04T05:33:34;15.43;;;12.60;;
9823;SDS011;4951;50.778;7.196;2023-12-04T05:36:57;15.83;;;12.60;;
9823;SDS011;4951;50.778;7.196;2023-12-04T05:39:47;17.53;;;12.47;;
9823;SDS011;4951;50.778;7.196;2023-12-04T05:43:03;15.77;;;12.50;;
9823;SDS011;4951;50.778;7.196;2023-12-04T05:45:47;16.50;;;12.20;;
9823;SDS011;4951;50.778;7.196;2023-12-04T05:49:16;15.40;;;12.43;;
9823;SDS011;4951;50.778;7.196;2023-12-04T05:52:01;15.73;;;13.03;;
9823;SDS011;4951;50.778;7.196;2023-12-04T05:55:17;15.77;;;12.50;;
9823;SDS011;4951;50.778;7.196;2023-12-04T05:57:57;15.63;;;12.63;;
9823;SDS011;4951;50.778;7.196;2023-12-04T06:00:35;16.37;;;12.43;;
9823;SDS011;4951;50.778;7.196;2023-12-04T06:03:20;15.47;;;12.30;;
9823;SDS011;4951;50.778;7.196;2023-12-04T06:07:23;15.20;;;12.13;;
9823;SDS011;4951;50.778;7.196;2023-12-04T06:11:00;15.60;;;12.40;;
9823;SDS011;4951;50.778;7.196;2023-12-04T06:14:02;17.50;;;12.40;;
9823;SDS011;4951;50.778;7.196;2023-12-04T06:16:53;15.03;;;12.67;;
9823;SDS011;4951;50.778;7.196;2023-12-04T06:19:59;16.60;;;12.17;;
9823;SDS011;4951;50.778;7.196;2023-12-04T06:22:53;15.30;;;11.23;;
9823;SDS011;4951;50.778;7.196;2023-12-04T06:25:44;13.47;;;11.47;;
9823;SDS011;4951;50.778;7.196;2023-12-04T06:28:14;16.30;;;13.13;;
9823;SDS011;4951;50.778;7.196;2023-12-04T06:30:54;15.87;;;12.57;;
9823;SDS011;4951;50.778;7.196;2023-12-04T06:34:00;18.80;;;13.03;;
9823;SDS011;4951;50.778;7.196;2023-12-04T06:37:05;14.87;;;12.13;;
9823;SDS011;4951;50.778;7.196;2023-12-04T06:40:10;16.33;;;11.97;;
9823;SDS011;4951;50.778;7.196;2023-12-04T06:43:09;15.33;;;11.70;;
9823;SDS011;4951;50.778;7.196;2023-12-04T06:46:47;15.93;;;12.10;;
9823;SDS011;4951;50.778;7.196;2023-12-04T06:49:20;15.70;;;12.17;;
9823;SDS011;4951;50.778;7.196;2023-12-04T06:52:12;17.70;;;12.67;;
9823;SDS011;4951;50.778;7.196;2023-12-04T06:54:59;14.63;;;11.97;;
9823;SDS011;4951;50.778;7.196;2023-12-04T06:57:48;15.90;;;12.70;;
9823;SDS011;4951;50.778;7.196;2023-12-04T07:00:44;17.00;;;12.73;;
9823;SDS011;4951;50.778;7.196;2023-12-04T07:03:34;13.97;;;11.73;;
9823;SDS011;4951;50.778;7.196;2023-12-04T07:06:21;17.33;;;13.43;;
9823;SDS011;4951;50.778;7.196;2023-12-04T07:09:12;15.97;;;12.97;;
9823;SDS011;4951;50.778;7.196;2023-12-04T07:12:19;14.47;;;11.63;;
9823;SDS011;4951;50.778;7.196;2023-12-04T07:15:12;17.70;;;13.03;;
9823;SDS011;4951;50.778;7.196;2023-12-04T07:18:00;17.03;;;12.20;;
9823;SDS011;4951;50.778;7.196;2023-12-04T07:20:48;16.77;;;13.20;;
9823;SDS011;4951;50.778;7.196;2023-12-04T07:23:35;15.97;;;12.57;;
9823;SDS011;4951;50.778;7.196;2023-12-04T07:26:13;18.33;;;13.60;;
9823;SDS011;4951;50.778;7.196;2023-12-04T07:28:54;15.37;;;11.83;;
9823;SDS011;4951;50.778;7.196;2023-12-04T07:31:38;17.70;;;12.73;;
9823;SDS011;4951;50.778;7.196;2023-12-04T07:34:19;16.60;;;13.10;;
9823;SDS011;4951;50.778;7.196;2023-12-04T07:36:57;15.77;;;12.67;;
9823;SDS011;4951;50.778;7.196;2023-12-04T07:39:45;15.77;;;11.63;;
9823;SDS011;4951;50.778;7.196;2023-12-04T07:42:38;15.17;;;11.20;;
9823;SDS011;4951;50.778;7.196;2023-12-04T07:45:17;16.27;;;12.23;;
9823;SDS011;4951;50.778;7.196;2023-12-04T07:48:05;15.80;;;12.70;;
9823;SDS011;4951;50.778;7.196;2023-12-04T07:50:41;16.17;;;12.23;;
9823;SDS011;4951;50.778;7.196;2023-12-04T07:53:28;15.37;;;12.47;;
9823;SDS011;4951;50.778;7.196;2023-12-04T07:56:49;15.87;;;12.00;;
9823;SDS011;4951;50.778;7.196;2023-12-04T07:59:33;14.13;;;11.43;;
9823;SDS011;4951;50.778;7.196;2023-12-04T08:02:39;14.07;;;11.23;;
9823;SDS011;4951;50.778;7.196;2023-12-04T08:05:33;14.20;;;11.47;;
9823;SDS011;4951;50.778;7.196;2023-12-04T08:08:20;16.83;;;12.50;;
9823;SDS011;4951;50.778;7.196;2023-12-04T08:11:14;14.37;;;11.17;;
9823;SDS011;4951;50.778;7.196;2023-12-04T08:14:42;17.40;;;12.73;;
9823;SDS011;4951;50.778;7.196;2023-12-04T08:17:23;14.17;;;11.67;;
9823;SDS011;4951;50.778;7.196;2023-12-04T08:19:57;16.03;;;11.60;;
9823;SDS011;4951;50.778;7.196;2023-12-04T08:23:07;15.20;;;11.57;;
9823;SDS011;4951;50.778;7.196;2023-12-04T08:26:31;14.87;;;11.67;;
9823;SDS011;4951;50.778;7.196;2023-12-04T08:29:24;16.03;;;12.33;;
9823;SDS011;4951;50.778;7.196;2023-12-04T08:32:17;14.07;;;11.17;;
9823;SDS011;4951;50.778;7.196;2023-12-04T08:35:09;15.97;;;11.77;;
9823;SDS011;4951;50.778;7.196;2023-12-04T08:37:50;14.70;;;11.17;;
9823;SDS011;4951;50.778;7.196;2023-12-04T08:40:40;13.67;;;11.13;;
9823;SDS011;4951;50.778;7.196;2023-12-04T08:43:28;13.63;;;11.03;;
9823;SDS011;4951;50.778;7.196;2023-12-04T08:46:16;15.23;;;11.27;;
9823;SDS011;4951;50.778;7.196;2023-12-04T08:52:24;14.13;;;10.90;;
9823;SDS011;4951;50.778;7.196;2023-12-04T08:55:12;14.63;;;11.27;;
9823;SDS011;4951;50.778;7.196;2023-12-04T08:58:04;13.37;;;10.77;;
9823;SDS011;4951;50.778;7.196;2023-12-04T09:00:59;13.70;;;11.10;;
9823;SDS011;4951;50.778;7.196;2023-12-04T09:03:49;13.57;;;10.13;;
9823;SDS011;4951;50.778;7.196;2023-12-04T09:06:47;11.90;;;10.07;;
9823;SDS011;4951;50.778;7.196;2023-12-04T09:09:32;13.27;;;10.50;;
9823;SDS011;4951;50.778;7.196;2023-12-04T09:12:02;14.00;;;10.77;;
9823;SDS011;4951;50.778;7.196;2023-12-04T09:15:16;13.53;;;10.33;;
9823;SDS011;4951;50.778;7.196;2023-12-04T09:18:16;13.13;;;10.40;;
9823;SDS011;4951;50.778;7.196;2023-12-04T09:24:31;13.23;;;10.73;;
9823;SDS011;4951;50.778;7.196;2023-12-04T09:31:58;13.17;;;10.83;;
9823;SDS011;4951;50.778;7.196;2023-12-04T09:43:06;13.73;;;10.00;;
9823;SDS011;4951;50.778;7.196;2023-12-04T09:45:45;14.63;;;11.30;;
9823;SDS011;4951;50.778;7.196;2023-12-04T09:48:47;13.67;;;10.57;;
9823;SDS011;4951;50.778;7.196;2023-12-04T09:51:30;13.47;;;10.13;;
9823;SDS011;4951;50.778;7.196;2023-12-04T09:54:13;13.50;;;9.83;;
9823;SDS011;4951;50.778;7.196;2023-12-04T09:56:56;12.40;;;9.40;;
9823;SDS011;4951;50.778;7.196;2023-12-04T10:03:01;12.37;;;9.80;;
9823;SDS011;4951;50.778;7.196;2023-12-04T10:05:43;13.27;;;10.27;;
9823;SDS011;4951;50.778;7.196;2023-12-04T10:08:23;11.97;;;9.30;;
9823;SDS011;4951;50.778;7.196;2023-12-04T10:11:27;11.63;;;8.97;;
9823;SDS011;4951;50.778;7.196;2023-12-04T10:14:17;8.90;;;7.80;;
9823;SDS011;4951;50.778;7.196;2023-12-04T10:17:46;11.87;;;8.93;;
9823;SDS011;4951;50.778;7.196;2023-12-04T10:20:28;10.43;;;8.83;;
9823;SDS011;4951;50.778;7.196;2023-12-04T10:23:18;8.87;;;7.80;;
9823;SDS011;4951;50.778;7.196;2023-12-04T10:26:07;12.10;;;8.17;;
9823;SDS011;4951;50.778;7.196;2023-12-04T10:28:58;9.90;;;7.83;;
9823;SDS011;4951;50.778;7.196;2023-12-04T10:32:21;11.30;;;7.80;;
9823;SDS011;4951;50.778;7.196;2023-12-04T10:35:08;10.77;;;8.37;;
9823;SDS011;4951;50.778;7.196;2023-12-04T10:38:23;9.93;;;7.70;;
9823;SDS011;4951;50.778;7.196;2023-12-04T10:55:55;12.10;;;9.17;;
9823;SDS011;4951;50.778;7.196;2023-12-04T10:59:24;10.87;;;9.17;;
9823;SDS011;4951;50.778;7.196;2023-12-04T11:02:20;12.97;;;8.83;;
9823;SDS011;4951;50.778;7.196;2023-12-04T11:04:55;11.97;;;8.83;;
9823;SDS011;4951;50.778;7.196;2023-12-04T11:08:09;11.43;;;8.70;;
9823;SDS011;4951;50.778;7.196;2023-12-04T11:11:24;11.17;;;8.33;;
9823;SDS011;4951;50.778;7.196;2023-12-04T11:15:16;11.53;;;8.67;;
9823;SDS011;4951;50.778;7.196;2023-12-04T11:33:34;11.97;;;10.00;;
9823;SDS011;4951;50.778;7.196;2023-12-04T11:37:20;12.00;;;8.93;;
9823;SDS011;4951;50.778;7.196;2023-12-04T11:40:02;10.63;;;8.83;;
9823;SDS011;4951;50.778;7.196;2023-12-04T11:42:39;11.57;;;9.37;;
9823;SDS011;4951;50.778;7.196;2023-12-04T11:45:32;10.77;;;9.20;;
9823;SDS011;4951;50.778;7.196;2023-12-04T11:48:39;12.43;;;9.13;;
9823;SDS011;4951;50.778;7.196;2023-12-04T11:54:54;11.40;;;8.80;;
9823;SDS011;4951;50.778;7.196;2023-12-04T11:57:38;11.37;;;9.43;;
9823;SDS011;4951;50.778;7.196;2023-12-04T12:00:26;10.13;;;8.83;;
9823;SDS011;4951;50.778;7.196;2023-12-04T12:03:02;10.53;;;9.30;;
9823;SDS011;4951;50.778;7.196;2023-12-04T12:05:35;11.70;;;9.70;;
9823;SDS011;4951;50.778;7.196;2023-12-04T12:08:10;11.33;;;9.37;;
9823;SDS011;4951;50.778;7.196;2023-12-04T12:10:48;10.50;;;8.60;;
9823;SDS011;4951;50.778;7.196;2023-12-04T12:13:22;10.17;;;8.23;;
9823;SDS011;4951;50.778;7.196;2023-12-04T12:16:01;11.97;;;8.60;;
9823;SDS011;4951;50.778;7.196;2023-12-04T12:18:39;10.77;;;9.43;;
9823;SDS011;4951;50.778;7.196;2023-12-04T12:21:10;12.80;;;9.43;;
9823;SDS011;4951;50.778;7.196;2023-12-04T12:23:39;10.30;;;8.97;;
9823;SDS011;4951;50.778;7.196;2023-12-04T12:26:08;11.20;;;9.20;;
9823;SDS011;4951;50.778;7.196;2023-12-04T12:28:42;11.57;;;8.97;;
9823;SDS011;4951;50.778;7.196;2023-12-04T12:31:12;11.83;;;9.63;;
9823;SDS011;4951;50.778;7.196;2023-12-04T12:33:47;11.70;;;9.90;;
9823;SDS011;4951;50.778;7.196;2023-12-04T12:36:19;13.57;;;9.73;;
9823;SDS011;4951;50.778;7.196;2023-12-04T12:38:53;13.30;;;10.17;;
9823;SDS011;4951;50.778;7.196;2023-12-04T12:41:24;14.73;;;10.77;;
9823;SDS011;4951;50.778;7.196;2023-12-04T12:44:00;13.07;;;9.33;;
9823;SDS011;4951;50.778;7.196;2023-12-04T12:46:34;13.73;;;10.70;;
9823;SDS011;4951;50.778;7.196;2023-12-04T12:49:15;13.40;;;10.60;;
9823;SDS011;4951;50.778;7.196;2023-12-04T12:51:48;12.77;;;10.63;;
9823;SDS011;4951;50.778;7.196;2023-12-04T12:54:17;13.73;;;11.23;;
9823;SDS011;4951;50.778;7.196;2023-12-04T12:56:51;12.67;;;11.20;;
9823;SDS011;4951;50.778;7.196;2023-12-04T12:59:23;15.37;;;11.17;;
9823;SDS011;4951;50.778;7.196;2023-12-04T13:01:53;17.27;;;11.70;;
9823;SDS011;4951;50.778;7.196;2023-12-04T13:04:27;14.13;;;11.50;;
9823;SDS011;4951;50.778;7.196;2023-12-04T13:07:12;14.13;;;10.80;;
9823;SDS011;4951;50.778;7.196;2023-12-04T13:09:42;15.80;;;11.73;;
9823;SDS011;4951;50.778;7.196;2023-12-04T13:12:14;13.93;;;11.03;;
9823;SDS011;4951;50.778;7.196;2023-12-04T13:14:42;14.80;;;10.57;;
9823;SDS011;4951;50.778;7.196;2023-12-04T13:17:14;12.87;;;10.83;;
9823;SDS011;4951;50.778;7.196;2023-12-04T13:20:07;13.97;;;11.53;;
9823;SDS011;4951;50.778;7.196;2023-12-04T13:22:42;13.23;;;10.40;;
9823;SDS011;4951;50.778;7.196;2023-12-04T13:25:14;13.73;;;10.70;;
9823;SDS011;4951;50.778;7.196;2023-12-04T13:27:47;11.70;;;10.20;;
9823;SDS011;4951;50.778;7.196;2023-12-04T13:30:17;14.33;;;11.47;;
9823;SDS011;4951;50.778;7.196;2023-12-04T13:32:54;12.47;;;10.47;;
9823;SDS011;4951;50.778;7.196;2023-12-04T13:35:29;12.13;;;10.43;;
9823;SDS011;4951;50.778;7.196;2023-12-04T13:38:00;17.90;;;9.90;;
9823;SDS011;4951;50.778;7.196;2023-12-04T13:40:30;14.83;;;10.30;;
9823;SDS011;4951;50.778;7.196;2023-12-04T13:43:02;11.93;;;10.00;;
9823;SDS011;4951;50.778;7.196;2023-12-04T13:45:47;12.13;;;10.00;;
9823;SDS011;4951;50.778;7.196;2023-12-04T13:48:15;12.27;;;10.47;;
9823;SDS011;4951;50.778;7.196;2023-12-04T13:50:49;12.93;;;11.00;;
9823;SDS011;4951;50.778;7.196;2023-12-04T13:53:19;13.47;;;10.43;;
9823;SDS011;4951;50.778;7.196;2023-12-04T13:55:56;13.13;;;11.00;;
9823;SDS011;4951;50.778;7.196;2023-12-04T13:58:49;12.33;;;10.60;;
9823;SDS011;4951;50.778;7.196;2023-12-04T14:01:29;13.60;;;10.57;;
9823;SDS011;4951;50.778;7.196;2023-12-04T14:04:07;13.63;;;10.60;;
9823;SDS011;4951;50.778;7.196;2023-12-04T14:06:42;12.17;;;10.47;;
9823;SDS011;4951;50.778;7.196;2023-12-04T14:09:16;12.67;;;10.80;;
9823;SDS011;4951;50.778;7.196;2023-12-04T14:11:47;12.53;;;10.10;;
9823;SDS011;4951;50.778;7.196;2023-12-04T14:14:20;11.87;;;10.27;;
9823;SDS011;4951;50.778;7.196;2023-12-04T14:17:03;14.10;;;9.93;;
9823;SDS011;4951;50.778;7.196;2023-12-04T14:19:43;11.33;;;9.77;;
9823;SDS011;4951;50.778;7.196;2023-12-04T14:22:18;12.97;;;10.30;;
9823;SDS011;4951;50.778;7.196;2023-12-04T14:24:48;10.93;;;9.73;;
9823;SDS011;4951;50.778;7.196;2023-12-04T14:27:18;12.23;;;9.67;;
9823;SDS011;4951;50.778;7.196;2023-12-04T14:29:46;10.97;;;9.50;;
9823;SDS011;4951;50.778;7.196;2023-12-04T14:32:18;10.67;;;9.30;;
9823;SDS011;4951;50.778;7.196;2023-12-04T14:34:58;12.33;;;9.63;;
9823;SDS011;4951;50.778;7.196;2023-12-04T14:37:30;11.47;;;9.63;;
9823;SDS011;4951;50.778;7.196;2023-12-04T14:39:58;11.93;;;9.47;;
9823;SDS011;4951;50.778;7.196;2023-12-04T14:42:27;11.73;;;9.57;;
9823;SDS011;4951;50.778;7.196;2023-12-04T14:44:58;12.53;;;10.03;;
9823;SDS011;4951;50.778;7.196;2023-12-04T14:47:28;13.20;;;10.37;;
9823;SDS011;4951;50.778;7.196;2023-12-04T14:49:57;13.27;;;9.47;;
9823;SDS011;4951;50.778;7.196;2023-12-04T14:52:26;11.43;;;9.67;;
9823;SDS011;4951;50.778;7.196;2023-12-04T14:55:01;11.23;;;9.20;;
9823;SDS011;4951;50.778;7.196;2023-12-04T14:57:59;10.03;;;8.40;;
9823;SDS011;4951;50.778;7.196;2023-12-04T15:00:48;12.37;;;9.33;;
9823;SDS011;4951;50.778;7.196;2023-12-04T15:03:49;10.67;;;9.00;;
9823;SDS011;4951;50.778;7.196;2023-12-04T15:06:38;10.20;;;8.63;;
9823;SDS011;4951;50.778;7.196;2023-12-04T15:09:41;11.77;;;8.73;;
9823;SDS011;4951;50.778;7.196;2023-12-04T15:12:31;11.27;;;8.50;;
9823;SDS011;4951;50.778;7.196;2023-12-04T15:15:27;11.07;;;9.27;;
9823;SDS011;4951;50.778;7.196;2023-12-04T15:18:07;11.33;;;9.77;;
9823;SDS011;4951;50.778;7.196;2023-12-04T15:21:03;11.17;;;8.97;;
9823;SDS011;4951;50.778;7.196;2023-12-04T15:23:34;12.60;;;9.37;;
9823;SDS011;4951;50.778;7.196;2023-12-04T15:26:08;11.73;;;9.63;;
9823;SDS011;4951;50.778;7.196;2023-12-04T15:28:50;10.57;;;9.27;;
9823;SDS011;4951;50.778;7.196;2023-12-04T15:31:24;9.20;;;8.20;;
9823;SDS011;4951;50.778;7.196;2023-12-04T15:33:57;10.23;;;8.50;;
9823;SDS011;4951;50.778;7.196;2023-12-04T15:36:43;11.27;;;8.83;;
9823;SDS011;4951;50.778;7.196;2023-12-04T15:40:10;9.97;;;8.97;;
9823;SDS011;4951;50.778;7.196;2023-12-04T15:42:48;10.63;;;8.03;;
9823;SDS011;4951;50.778;7.196;2023-12-04T15:45:26;9.90;;;8.27;;
9823;SDS011;4951;50.778;7.196;2023-12-04T15:48:01;10.63;;;8.50;;
9823;SDS011;4951;50.778;7.196;2023-12-04T15:50:32;9.57;;;8.27;;
9823;SDS011;4951;50.778;7.196;2023-12-04T15:53:14;11.10;;;9.03;;
9823;SDS011;4951;50.778;7.196;2023-12-04T15:55:45;12.87;;;8.97;;
9823;SDS011;4951;50.778;7.196;2023-12-04T15:58:17;8.53;;;7.63;;
9823;SDS011;4951;50.778;7.196;2023-12-04T16:00:55;9.80;;;8.73;;
9823;SDS011;4951;50.778;7.196;2023-12-04T16:03:29;8.77;;;7.83;;
9823;SDS011;4951;50.778;7.196;2023-12-04T16:06:05;10.80;;;8.87;;
9823;SDS011;4951;50.778;7.196;2023-12-04T16:08:45;9.37;;;7.83;;
9823;SDS011;4951;50.778;7.196;2023-12-04T16:11:21;9.77;;;8.47;;
9823;SDS011;4951;50.778;7.196;2023-12-04T16:13:57;12.90;;;8.70;;
9823;SDS011;4951;50.778;7.196;2023-12-04T16:16:30;9.00;;;7.70;;
9823;SDS011;4951;50.778;7.196;2023-12-04T16:18:58;8.77;;;7.80;;
9823;SDS011;4951;50.778;7.196;2023-12-04T16:21:37;9.07;;;8.17;;
9823;SDS011;4951;50.778;7.196;2023-12-04T16:24:15;10.90;;;8.20;;
9823;SDS011;4951;50.778;7.196;2023-12-04T16:26:49;8.70;;;7.80;;
9823;SDS011;4951;50.778;7.196;2023-12-04T16:29:25;8.87;;;7.70;;
9823;SDS011;4951;50.778;7.196;2023-12-04T16:32:01;9.20;;;8.10;;
9823;SDS011;4951;50.778;7.196;2023-12-04T16:34:37;9.17;;;8.17;;
9823;SDS011;4951;50.778;7.196;2023-12-04T16:37:11;10.57;;;8.37;;
9823;SDS011;4951;50.778;7.196;2023-12-04T16:39:42;9.00;;;7.90;;
9823;SDS011;4951;50.778;7.196;2023-12-04T16:42:16;10.73;;;8.47;;
9823;SDS011;4951;50.778;7.196;2023-12-04T16:44:50;10.80;;;8.37;;
9823;SDS011;4951;50.778;7.196;2023-12-04T16:47:21;8.33;;;7.10;;
9823;SDS011;4951;50.778;7.196;2023-12-04T16:49:52;9.57;;;7.97;;
9823;SDS011;4951;50.778;7.196;2023-12-04T16:52:26;9.00;;;7.97;;
9823;SDS011;4951;50.778;7.196;2023-12-04T16:55:05;8.60;;;7.27;;
9823;SDS011;4951;50.778;7.196;2023-12-04T16:57:49;8.00;;;7.20;;
9823;SDS011;4951;50.778;7.196;2023-12-04T17:00:22;7.40;;;6.67;;
9823;SDS011;4951;50.778;7.196;2023-12-04T17:02:51;7.87;;;6.80;;
9823;SDS011;4951;50.778;7.196;2023-12-04T17:05:27;7.50;;;6.70;;
9823;SDS011;4951;50.778;7.196;2023-12-04T17:07:59;8.77;;;7.27;;
9823;SDS011;4951;50.778;7.196;2023-12-04T17:10:30;9.43;;;8.13;;
9823;SDS011;4951;50.778;7.196;2023-12-04T17:13:20;9.20;;;8.10;;
9823;SDS011;4951;50.778;7.196;2023-12-04T17:16:01;9.33;;;8.43;;
9823;SDS011;4951;50.778;7.196;2023-12-04T17:18:32;9.23;;;7.73;;
9823;SDS011;4951;50.778;7.196;2023-12-04T17:21:14;8.70;;;7.80;;
9823;SDS011;4951;50.778;7.196;2023-12-04T17:23:56;8.07;;;7.27;;
9823;SDS011;4951;50.778;7.196;2023-12-04T17:26:31;10.00;;;8.87;;
9823;SDS011;4951;50.778;7.196;2023-12-04T17:29:07;10.53;;;8.03;;
9823;SDS011;4951;50.778;7.196;2023-12-04T17:31:42;8.70;;;7.77;;
9823;SDS011;4951;50.778;7.196;2023-12-04T17:34:15;9.10;;;8.10;;
9823;SDS011;4951;50.778;7.196;2023-12-04T17:36:48;11.77;;;9.97;;
9823;SDS011;4951;50.778;7.196;2023-12-04T17:39:27;13.67;;;11.37;;
9823;SDS011;4951;50.778;7.196;2023-12-04T17:42:12;13.57;;;11.07;;
9823;SDS011;4951;50.778;7.196;2023-12-04T17:44:51;15.70;;;11.87;;
9823;SDS011;4951;50.778;7.196;2023-12-04T17:47:22;14.97;;;11.43;;
9823;SDS011;4951;50.778;7.196;2023-12-04T17:49:54;16.97;;;11.33;;
9823;SDS011;4951;50.778;7.196;2023-12-04T17:52:39;13.10;;;10.47;;
9823;SDS011;4951;50.778;7.196;2023-12-04T17:55:15;13.53;;;11.03;;
9823;SDS011;4951;50.778;7.196;2023-12-04T17:57:53;13.10;;;11.30;;
9823;SDS011;4951;50.778;7.196;2023-12-04T18:00:28;14.80;;;12.33;;
9823;SDS011;4951;50.778;7.196;2023-12-04T18:02:59;14.87;;;10.97;;
9823;SDS011;4951;50.778;7.196;2023-12-04T18:05:31;20.87;;;15.63;;
9823;SDS011;4951;50.778;7.196;2023-12-04T18:08:06;17.47;;;13.30;;
9823;SDS011;4951;50.778;7.196;2023-12-04T18:10:39;18.20;;;14.53;;
9823;SDS011;4951;50.778;7.196;2023-12-04T18:13:17;16.63;;;13.80;;
9823;SDS011;4951;50.778;7.196;2023-12-04T18:15:50;21.87;;;16.13;;
9823;SDS011;4951;50.778;7.196;2023-12-04T18:18:17;20.10;;;16.00;;
9823;SDS011;4951;50.778;7.196;2023-12-04T18:20:49;20.10;;;16.03;;
9823;SDS011;4951;50.778;7.196;2023-12-04T18:23:20;22.27;;;18.43;;
9823;SDS011;4951;50.778;7.196;2023-12-04T18:25:52;24.77;;;17.97;;
9823;SDS011;4951;50.778;7.196;2023-12-04T18:28:25;20.80;;;16.83;;
9823;SDS011;4951;50.778;7.196;2023-12-04T18:31:00;16.70;;;12.93;;
9823;SDS011;4951;50.778;7.196;2023-12-04T18:33:32;17.43;;;14.90;;
9823;SDS011;4951;50.778;7.196;2023-12-04T18:36:07;18.77;;;15.13;;
9823;SDS011;4951;50.778;7.196;2023-12-04T18:38:49;22.53;;;15.90;;
9823;SDS011;4951;50.778;7.196;2023-12-04T18:41:20;19.37;;;14.33;;
9823;SDS011;4951;50.778;7.196;2023-12-04T18:43:51;17.80;;;14.37;;
9823;SDS011;4951;50.778;7.196;2023-12-04T18:46:26;19.00;;;15.53;;
9823;SDS011;4951;50.778;7.196;2023-12-04T18:49:00;18.43;;;15.33;;
9823;SDS011;4951;50.778;7.196;2023-12-04T18:51:32;22.13;;;18.30;;
9823;SDS011;4951;50.778;7.196;2023-12-04T18:54:05;15.33;;;13.20;;
9823;SDS011;4951;50.778;7.196;2023-12-04T18:56:44;16.70;;;14.43;;
9823;SDS011;4951;50.778;7.196;2023-12-04T18:59:44;19.97;;;15.60;;
9823;SDS011;4951;50.778;7.196;2023-12-04T19:02:20;20.83;;;17.07;;
9823;SDS011;4951;50.778;7.196;2023-12-04T19:05:03;19.20;;;15.07;;
9823;SDS011;4951;50.778;7.196;2023-12-04T19:07:44;15.73;;;12.33;;
9823;SDS011;4951;50.778;7.196;2023-12-04T19:10:16;17.17;;;15.07;;
9823;SDS011;4951;50.778;7.196;2023-12-04T19:12:51;14.87;;;13.20;;
9823;SDS011;4951;50.778;7.196;2023-12-04T19:15:19;18.67;;;15.20;;
9823;SDS011;4951;50.778;7.196;2023-12-04T19:17:51;15.03;;;13.50;;
9823;SDS011;4951;50.778;7.196;2023-12-04T19:20:23;19.20;;;15.50;;
9823;SDS011;4951;50.778;7.196;2023-12-04T19:22:54;15.90;;;13.67;;
9823;SDS011;4951;50.778;7.196;2023-12-04T19:25:23;16.83;;;13.60;;